createdAt,value
2022-12-23T00:02:21.772Z,6.81
2022-12-23T00:04:48.852Z,6.79
2022-12-23T00:07:15.883Z,6.68
2022-12-23T00:09:42.851Z,6.90
2022-12-23T00:12:28.496Z,6.94
2022-12-23T00:15:07.914Z,6.97
2022-12-23T00:17:37.643Z,7.11
2022-12-23T00:20:06.333Z,7.14
2022-12-23T00:22:51.767Z,7.20
2022-12-23T00:25:19.095Z,7.13
2022-12-23T00:28:01.792Z,7.11
2022-12-23T00:30:28.965Z,7.15
2022-12-23T00:32:56.045Z,7.18
2022-12-23T00:35:23.030Z,7.24
2022-12-23T00:37:49.944Z,7.34
2022-12-23T00:40:35.795Z,7.46
2022-12-23T00:43:02.955Z,7.58
2022-12-23T00:45:29.991Z,7.70
2022-12-23T00:48:15.455Z,7.75
2022-12-23T00:50:43.544Z,7.75
2022-12-23T00:53:10.630Z,7.90
2022-12-23T00:55:37.697Z,7.92
2022-12-23T00:58:04.852Z,7.93
2022-12-23T01:00:50.691Z,8.00
2022-12-23T01:03:36.175Z,8.04
2022-12-23T01:06:03.835Z,8.04
2022-12-23T01:08:31.065Z,8.10
2022-12-23T01:11:02.323Z,8.11
2022-12-23T01:13:29.768Z,8.15
2022-12-23T01:16:07.443Z,8.14
2022-12-23T01:18:37.395Z,8.14
2022-12-23T01:21:07.515Z,8.17
2022-12-23T01:23:35.539Z,8.17
2022-12-23T01:26:04.802Z,8.11
2022-12-23T01:28:32.943Z,8.09
2022-12-23T01:31:01.288Z,8.10
2022-12-23T01:33:28.972Z,8.23
2022-12-23T01:36:08.443Z,8.18
2022-12-23T01:38:35.599Z,8.23
2022-12-23T01:41:02.742Z,8.20
2022-12-23T01:43:50.574Z,8.27
2022-12-23T01:46:18.875Z,8.32
2022-12-23T01:48:50.872Z,8.36
2022-12-23T01:51:29.507Z,8.37
2022-12-23T01:54:01.505Z,8.35
2022-12-23T01:56:46.927Z,8.48
2022-12-23T01:59:35.314Z,8.53
2022-12-23T02:02:21.510Z,8.48
2022-12-23T02:04:50.630Z,8.46
2022-12-23T02:07:36.847Z,8.45
2022-12-23T02:10:05.899Z,8.42
2022-12-23T02:13:00.505Z,8.50
2022-12-23T02:15:48.976Z,8.47
2022-12-23T02:18:28.032Z,8.49
2022-12-23T02:21:27.884Z,8.47
2022-12-23T02:24:20.178Z,8.52
2022-12-23T02:27:05.343Z,8.53
2022-12-23T02:29:56.069Z,8.51
2022-12-23T02:32:50.213Z,8.63
2022-12-23T02:35:45.358Z,8.62
2022-12-23T02:38:17.422Z,8.59
2022-12-23T02:41:05.952Z,8.59
2022-12-23T02:43:50.229Z,8.65
2022-12-23T02:46:35.631Z,8.54
2022-12-23T02:49:12.364Z,8.55
2022-12-23T02:51:42.979Z,8.61
2022-12-23T02:54:15.095Z,8.58
2022-12-23T02:56:46.613Z,8.67
2022-12-23T02:59:21.879Z,8.62
2022-12-23T03:01:50.362Z,8.69
2022-12-23T03:04:17.569Z,8.63
2022-12-23T03:06:48.871Z,8.66
2022-12-23T03:09:27.131Z,8.64
2022-12-23T03:12:03.738Z,8.54
2022-12-23T03:14:49.016Z,8.49
2022-12-23T03:17:46.976Z,8.42
2022-12-23T03:20:13.843Z,8.42
2022-12-23T03:22:50.064Z,8.32
2022-12-23T03:25:35.932Z,8.21
2022-12-23T03:28:22.072Z,8.27
2022-12-23T03:30:53.640Z,8.18
2022-12-23T03:33:27.179Z,8.30
2022-12-23T03:36:01.523Z,8.23
2022-12-23T03:38:30.920Z,8.23
2022-12-23T03:41:05.360Z,8.25
2022-12-23T03:43:51.090Z,8.16
2022-12-23T03:46:32.083Z,8.24
2022-12-23T03:49:03.937Z,8.21
2022-12-23T03:51:55.612Z,8.22
2022-12-23T03:54:36.684Z,8.16
2022-12-23T03:57:07.767Z,8.17
2022-12-23T03:59:43.022Z,8.12
2022-12-23T04:02:15.045Z,8.13
2022-12-23T04:05:04.381Z,8.16
2022-12-23T04:07:37.049Z,8.13
2022-12-23T04:10:05.271Z,8.14
2022-12-23T04:12:33.433Z,8.18
2022-12-23T04:15:00.706Z,8.17
2022-12-23T04:17:29.379Z,8.23
2022-12-23T04:19:56.923Z,8.17
2022-12-23T04:22:24.193Z,8.18
2022-12-23T04:24:51.183Z,8.21
2022-12-23T04:27:18.222Z,8.17
2022-12-23T04:29:45.596Z,8.14
2022-12-23T04:32:12.832Z,8.09
2022-12-23T04:34:39.843Z,8.13
2022-12-23T04:37:07.293Z,8.10
2022-12-23T04:39:34.380Z,7.99
2022-12-23T04:42:01.368Z,7.97
2022-12-23T04:44:28.338Z,7.82
2022-12-23T04:46:55.839Z,7.92
2022-12-23T04:49:22.936Z,8.01
2022-12-23T04:51:49.885Z,7.97
2022-12-23T04:54:18.563Z,7.92
2022-12-23T04:56:45.537Z,7.89
2022-12-23T04:59:12.504Z,7.75
2022-12-23T05:01:40.119Z,7.88
2022-12-23T05:04:07.454Z,7.82
2022-12-23T05:06:34.530Z,7.81
2022-12-23T05:09:01.541Z,7.77
2022-12-23T05:11:28.584Z,7.81
2022-12-23T05:13:56.013Z,7.84
2022-12-23T05:16:23.323Z,7.89
2022-12-23T05:18:50.484Z,7.92
2022-12-23T05:21:17.944Z,7.92
2022-12-23T05:23:45.140Z,7.96
2022-12-23T05:26:12.055Z,8.00
2022-12-23T05:28:39.078Z,8.09
2022-12-23T05:31:08.200Z,8.08
2022-12-23T05:33:35.861Z,8.02
2022-12-23T05:36:03.364Z,7.96
2022-12-23T05:38:30.447Z,8.02
2022-12-23T05:40:58.110Z,7.93
2022-12-23T05:43:25.636Z,7.86
2022-12-23T05:45:53.113Z,7.75
2022-12-23T05:48:20.279Z,7.75
2022-12-23T05:50:51.366Z,7.65
2022-12-23T05:53:19.834Z,7.58
2022-12-23T05:55:47.282Z,7.49
2022-12-23T05:58:14.705Z,7.46
2022-12-23T06:00:41.702Z,7.54
2022-12-23T06:03:09.070Z,7.52
2022-12-23T06:05:38.000Z,7.51
2022-12-23T06:08:11.883Z,7.45
2022-12-23T06:10:38.942Z,7.32
2022-12-23T06:13:06.004Z,7.36
2022-12-23T06:15:33.015Z,7.47
2022-12-23T06:18:00.043Z,7.58
2022-12-23T06:20:27.480Z,7.51
2022-12-23T06:22:54.907Z,7.51
2022-12-23T06:25:21.855Z,7.60
2022-12-23T06:27:48.923Z,7.34
2022-12-23T06:30:16.617Z,7.68
2022-12-23T06:32:43.869Z,8.09
2022-12-23T06:35:11.039Z,9.48
2022-12-23T06:37:38.273Z,10.45
2022-12-23T06:40:06.038Z,11.36
2022-12-23T06:42:33.462Z,12.39
2022-12-23T06:45:00.586Z,13.35
2022-12-23T06:47:27.587Z,13.65
2022-12-23T06:49:55.469Z,13.76
2022-12-23T06:52:24.255Z,14.01
2022-12-23T06:54:51.299Z,13.16
2022-12-23T06:57:18.531Z,13.00
2022-12-23T06:59:45.611Z,14.56
2022-12-23T07:02:12.934Z,15.11
2022-12-23T07:04:40.211Z,14.60
2022-12-23T07:07:07.392Z,13.89
2022-12-23T07:09:34.975Z,13.02
2022-12-23T07:12:03.873Z,12.41
2022-12-23T07:14:31.117Z,12.04
2022-12-23T07:16:58.355Z,11.64
2022-12-23T07:19:25.732Z,11.16
2022-12-23T07:21:52.901Z,10.70
2022-12-23T07:24:20.013Z,10.77
2022-12-23T07:26:47.027Z,10.63
2022-12-23T07:29:14.221Z,10.52
2022-12-23T07:31:41.526Z,10.47
2022-12-23T07:34:09.477Z,10.31
2022-12-23T07:36:36.612Z,10.32
2022-12-23T07:39:03.863Z,10.34
2022-12-23T07:41:31.341Z,10.31
2022-12-23T07:43:58.350Z,10.28
2022-12-23T07:46:25.427Z,10.19
2022-12-23T07:48:52.437Z,10.21
2022-12-23T07:51:19.614Z,10.35
2022-12-23T07:53:50.920Z,10.35
2022-12-23T07:56:19.743Z,10.34
2022-12-23T07:58:50.573Z,10.23
2022-12-23T08:01:18.352Z,10.39
2022-12-23T08:03:45.878Z,10.51
2022-12-23T08:06:14.771Z,10.58
2022-12-23T08:08:44.212Z,10.61
2022-12-23T08:11:13.301Z,10.63
2022-12-23T08:13:42.532Z,10.53
2022-12-23T08:16:10.409Z,10.55
2022-12-23T08:18:39.644Z,10.57
2022-12-23T08:21:13.579Z,10.57
2022-12-23T08:23:40.693Z,10.54
2022-12-23T08:26:13.481Z,10.51
2022-12-23T08:28:42.711Z,10.47
2022-12-23T08:31:16.981Z,10.44
2022-12-23T08:33:46.513Z,10.40
2022-12-23T08:36:22.407Z,10.22
2022-12-23T08:38:51.902Z,10.39
2022-12-23T08:41:24.926Z,10.49
2022-12-23T08:43:52.269Z,11.01
2022-12-23T08:46:20.012Z,11.48
2022-12-23T08:48:49.743Z,12.39
2022-12-23T08:51:18.885Z,12.53
2022-12-23T08:53:47.022Z,12.74
2022-12-23T08:56:20.145Z,13.95
2022-12-23T08:58:49.081Z,15.25
2022-12-23T09:01:19.561Z,16.09
2022-12-23T09:03:46.881Z,15.42
2022-12-23T09:06:29.967Z,16.25
2022-12-23T09:08:58.088Z,15.95
2022-12-23T09:11:27.215Z,16.19
2022-12-23T09:13:55.104Z,16.15
2022-12-23T09:16:23.226Z,15.84
2022-12-23T09:18:50.551Z,16.76
2022-12-23T09:21:22.565Z,17.00
2022-12-23T09:23:49.817Z,17.29
2022-12-23T09:26:34.930Z,17.25
2022-12-23T09:29:03.555Z,17.66
2022-12-23T09:31:36.736Z,17.84
2022-12-23T09:34:05.246Z,18.07
2022-12-23T09:36:32.431Z,18.01
2022-12-23T09:38:59.624Z,17.80
2022-12-23T09:41:54.893Z,18.38
2022-12-23T09:44:42.124Z,18.53
2022-12-23T09:47:17.723Z,18.04
2022-12-23T09:50:03.308Z,18.33
2022-12-23T09:52:50.113Z,18.47
2022-12-23T09:55:18.648Z,18.25
2022-12-23T09:58:01.329Z,18.37
2022-12-23T10:00:34.113Z,18.10
2022-12-23T10:03:44.442Z,18.39
2022-12-23T10:06:19.822Z,18.52
2022-12-23T10:08:50.036Z,18.52
2022-12-23T10:11:24.923Z,18.09
2022-12-23T10:13:51.723Z,17.55
2022-12-23T10:16:24.332Z,17.94
2022-12-23T10:18:57.857Z,18.11
2022-12-23T10:21:47.158Z,17.99
2022-12-23T10:24:23.231Z,17.82
2022-12-23T10:26:50.204Z,18.00
2022-12-23T10:29:20.702Z,17.93
2022-12-23T10:32:17.188Z,17.79
2022-12-23T10:35:05.371Z,17.89
2022-12-23T10:37:35.511Z,17.90
2022-12-23T10:40:20.485Z,18.46
2022-12-23T10:42:53.356Z,17.95
2022-12-23T10:45:43.405Z,18.24
2022-12-23T10:48:19.224Z,18.58
2022-12-23T10:50:55.213Z,18.58
2022-12-23T10:53:35.720Z,18.39
2022-12-23T10:56:05.303Z,18.46
2022-12-23T10:58:32.456Z,18.40
2022-12-23T11:01:09.929Z,18.50
2022-12-23T11:03:59.336Z,18.74
2022-12-23T11:06:33.151Z,18.65
2022-12-23T11:09:04.027Z,18.11
2022-12-23T11:11:55.156Z,18.62
2022-12-23T11:14:42.078Z,18.53
2022-12-23T11:17:22.240Z,17.96
2022-12-23T11:20:14.529Z,18.03
2022-12-23T11:22:50.286Z,18.28
2022-12-23T11:25:46.162Z,18.40
2022-12-23T11:28:18.112Z,18.23
2022-12-23T11:30:55.828Z,18.21
2022-12-23T11:33:32.637Z,18.34
2022-12-23T11:36:18.522Z,18.18
2022-12-23T11:39:13.433Z,18.18
2022-12-23T11:41:47.945Z,18.05
2022-12-23T11:44:14.853Z,18.00
2022-12-23T11:46:41.832Z,18.01
2022-12-23T11:49:34.192Z,17.93
2022-12-23T11:52:02.560Z,17.94
2022-12-23T11:54:31.508Z,18.00
2022-12-23T11:57:00.972Z,17.83
2022-12-23T11:59:38.596Z,17.48
2022-12-23T12:02:14.466Z,17.32
2022-12-23T12:04:43.028Z,16.90
2022-12-23T12:07:14.725Z,16.47
2022-12-23T12:09:43.857Z,16.27
2022-12-23T12:12:17.603Z,16.32
2022-12-23T12:14:49.118Z,16.29
2022-12-23T12:17:27.844Z,16.48
2022-12-23T12:20:13.775Z,16.44
2022-12-23T12:22:49.887Z,16.44
2022-12-23T12:25:37.904Z,16.31
2022-12-23T12:28:13.922Z,16.04
2022-12-23T12:31:13.689Z,15.82
2022-12-23T12:33:53.915Z,15.85
2022-12-23T12:36:26.516Z,15.89
2022-12-23T12:38:55.546Z,16.04
2022-12-23T12:41:39.844Z,15.93
2022-12-23T12:44:38.448Z,16.01
2022-12-23T12:47:36.202Z,15.98
2022-12-23T12:50:12.463Z,15.96
2022-12-23T12:52:42.708Z,15.96
2022-12-23T12:55:29.192Z,15.69
2022-12-23T12:57:56.141Z,15.76
2022-12-23T13:00:25.762Z,15.69
2022-12-23T13:03:27.695Z,15.84
2022-12-23T13:06:19.649Z,15.78
2022-12-23T13:08:46.483Z,15.77
2022-12-23T13:11:45.631Z,15.76
2022-12-23T13:14:34.964Z,15.74
2022-12-23T13:17:18.890Z,15.61
2022-12-23T13:20:03.842Z,15.68
2022-12-23T13:22:34.415Z,15.83
2022-12-23T13:25:08.779Z,15.75
2022-12-23T13:28:02.893Z,15.77
2022-12-23T13:30:52.289Z,15.72
2022-12-23T13:33:25.669Z,15.55
2022-12-23T13:36:07.645Z,15.69
2022-12-23T13:38:49.472Z,15.34
2022-12-23T13:41:21.961Z,15.30
2022-12-23T13:43:58.626Z,15.38
2022-12-23T13:46:44.306Z,15.37
2022-12-23T13:49:32.859Z,15.38
2022-12-23T13:52:07.767Z,15.19
2022-12-23T13:54:51.558Z,15.03
2022-12-23T13:58:06.350Z,14.91
2022-12-23T14:00:34.999Z,14.89
2022-12-23T14:03:02.141Z,14.77
2022-12-23T14:05:50.901Z,14.81
2022-12-23T14:08:20.568Z,14.73
2022-12-23T14:10:56.853Z,14.65
2022-12-23T14:13:27.160Z,14.66
2022-12-23T14:16:12.565Z,14.60
2022-12-23T14:19:03.666Z,14.49
2022-12-23T14:21:41.867Z,14.48
2022-12-23T14:24:27.051Z,14.42
2022-12-23T14:27:06.052Z,14.33
2022-12-23T14:29:38.264Z,14.22
2022-12-23T14:32:18.109Z,14.12
2022-12-23T14:35:04.555Z,14.17
2022-12-23T14:37:36.303Z,14.05
2022-12-23T14:40:39.340Z,14.02
2022-12-23T14:43:26.749Z,13.94
2022-12-23T14:46:00.061Z,13.83
2022-12-23T14:48:42.017Z,13.73
2022-12-23T14:51:08.774Z,13.65
2022-12-23T14:53:58.568Z,13.58
2022-12-23T14:56:43.425Z,13.56
2022-12-23T14:59:30.389Z,13.45
2022-12-23T15:02:00.756Z,13.38
2022-12-23T15:04:35.207Z,13.32
2022-12-23T15:07:08.389Z,13.18
2022-12-23T15:09:47.595Z,13.14
2022-12-23T15:12:32.801Z,13.05
2022-12-23T15:15:04.042Z,12.97
2022-12-23T15:17:33.776Z,12.87
2022-12-23T15:20:08.529Z,12.82
2022-12-23T15:22:35.579Z,12.65
2022-12-23T15:25:05.069Z,12.57
2022-12-23T15:27:36.437Z,12.42
2022-12-23T15:30:03.632Z,12.32
2022-12-23T15:32:30.642Z,12.19
2022-12-23T15:35:05.332Z,12.23
2022-12-23T15:37:39.709Z,12.12
2022-12-23T15:40:13.051Z,12.02
2022-12-23T15:42:47.881Z,11.94
2022-12-23T15:45:36.323Z,11.81
2022-12-23T15:48:05.438Z,11.73
2022-12-23T15:50:40.589Z,11.61
2022-12-23T15:53:10.758Z,11.57
2022-12-23T15:55:40.794Z,11.52
2022-12-23T15:58:15.525Z,11.40
2022-12-23T16:00:53.245Z,11.31
2022-12-23T16:03:26.717Z,11.28
2022-12-23T16:05:53.749Z,11.27
2022-12-23T16:08:29.655Z,11.17
2022-12-23T16:10:57.049Z,11.22
2022-12-23T16:13:23.917Z,11.18
2022-12-23T16:15:50.826Z,11.04
2022-12-23T16:18:28.671Z,10.82
2022-12-23T16:20:59.781Z,10.58
2022-12-23T16:23:30.403Z,10.78
2022-12-23T16:26:00.407Z,10.76
2022-12-23T16:28:39.924Z,10.71
2022-12-23T16:31:08.326Z,10.65
2022-12-23T16:33:39.852Z,10.51
2022-12-23T16:36:27.819Z,10.02
2022-12-23T16:39:06.076Z,10.02
2022-12-23T16:41:35.514Z,10.04
2022-12-23T16:44:03.336Z,10.02
2022-12-23T16:46:37.783Z,9.94
2022-12-23T16:49:11.051Z,10.18
2022-12-23T16:51:40.356Z,10.07
2022-12-23T16:54:13.566Z,10.02
2022-12-23T16:56:41.117Z,10.00
2022-12-23T16:59:08.241Z,9.87
2022-12-23T17:01:38.513Z,9.91
2022-12-23T17:04:06.940Z,9.88
2022-12-23T17:06:34.765Z,9.86
2022-12-23T17:09:02.492Z,9.76
2022-12-23T17:11:37.466Z,9.80
2022-12-23T17:14:10.390Z,9.47
2022-12-23T17:16:40.672Z,9.31
2022-12-23T17:19:07.648Z,9.18
2022-12-23T17:21:39.411Z,9.30
2022-12-23T17:24:20.400Z,9.20
2022-12-23T17:26:47.244Z,9.13
2022-12-23T17:29:14.480Z,9.16
2022-12-23T17:31:43.327Z,9.02
2022-12-23T17:34:17.221Z,8.92
2022-12-23T17:36:49.538Z,8.91
2022-12-23T17:39:17.454Z,8.92
2022-12-23T17:41:44.661Z,8.95
2022-12-23T17:44:14.797Z,8.90
2022-12-23T17:46:41.872Z,8.88
2022-12-23T17:49:09.037Z,8.93
2022-12-23T17:51:36.253Z,8.97
2022-12-23T17:54:05.103Z,8.81
2022-12-23T17:56:33.230Z,8.79
2022-12-23T17:59:00.315Z,8.61
2022-12-23T18:01:30.347Z,8.44
2022-12-23T18:04:00.262Z,8.41
2022-12-23T18:06:28.986Z,8.25
2022-12-23T18:08:59.916Z,8.27
2022-12-23T18:11:35.717Z,8.18
2022-12-23T18:14:04.195Z,8.08
2022-12-23T18:16:31.667Z,7.99
2022-12-23T18:18:58.753Z,7.94
2022-12-23T18:21:29.649Z,7.96
2022-12-23T18:23:59.977Z,7.85
2022-12-23T18:26:27.234Z,7.75
2022-12-23T18:28:54.708Z,7.79
2022-12-23T18:31:25.954Z,7.66
2022-12-23T18:33:53.615Z,7.68
2022-12-23T18:36:24.875Z,7.73
2022-12-23T18:38:53.075Z,7.65
2022-12-23T18:41:21.349Z,7.62
2022-12-23T18:43:48.856Z,7.49
2022-12-23T18:46:16.336Z,7.36
2022-12-23T18:48:43.510Z,7.33
2022-12-23T18:51:18.481Z,7.35
2022-12-23T18:53:47.093Z,7.34
2022-12-23T18:56:16.107Z,7.38
2022-12-23T18:58:43.239Z,7.44
2022-12-23T19:01:15.398Z,7.53
2022-12-23T19:03:43.157Z,7.72
2022-12-23T19:06:14.280Z,7.69
2022-12-23T19:08:43.114Z,7.64
2022-12-23T19:11:15.584Z,7.63
2022-12-23T19:13:43.044Z,7.79
2022-12-23T19:16:15.951Z,7.89
2022-12-23T19:18:44.069Z,7.65
2022-12-23T19:21:11.209Z,7.57
2022-12-23T19:23:40.467Z,7.50
2022-12-23T19:26:10.265Z,7.47
2022-12-23T19:28:38.730Z,7.62
2022-12-23T19:31:14.745Z,7.71
2022-12-23T19:33:44.222Z,7.83
2022-12-23T19:36:19.613Z,7.66
2022-12-23T19:38:46.643Z,7.56
2022-12-23T19:41:18.453Z,7.58
2022-12-23T19:43:46.911Z,7.57
2022-12-23T19:46:15.477Z,7.77
2022-12-23T19:48:43.184Z,7.78
2022-12-23T19:51:13.433Z,7.76
2022-12-23T19:53:42.153Z,7.88
2022-12-23T19:56:13.880Z,7.94
2022-12-23T19:58:42.477Z,7.75
2022-12-23T20:01:14.206Z,7.53
2022-12-23T20:03:42.583Z,7.70
2022-12-23T20:06:16.021Z,7.62
2022-12-23T20:08:44.133Z,7.52
2022-12-23T20:11:17.180Z,7.73
2022-12-23T20:13:45.648Z,7.66
2022-12-23T20:16:13.577Z,7.77
2022-12-23T20:18:41.044Z,7.78
2022-12-23T20:21:08.305Z,7.85
2022-12-23T20:23:35.845Z,7.89
2022-12-23T20:26:03.171Z,7.90
2022-12-23T20:28:30.943Z,7.93
2022-12-23T20:31:10.461Z,7.94
2022-12-23T20:33:38.809Z,7.58
2022-12-23T20:36:07.266Z,7.46
2022-12-23T20:38:35.299Z,7.35
2022-12-23T20:41:03.796Z,7.14
2022-12-23T20:43:31.005Z,7.22
2022-12-23T20:45:58.701Z,7.22
2022-12-23T20:48:31.708Z,7.26
2022-12-23T20:51:09.855Z,7.32
2022-12-23T20:53:39.129Z,7.35
2022-12-23T20:56:08.841Z,7.29
2022-12-23T20:58:56.639Z,7.31
2022-12-23T21:01:28.752Z,7.44
2022-12-23T21:03:57.992Z,7.44
2022-12-23T21:06:26.079Z,7.41
2022-12-23T21:08:58.500Z,7.49
2022-12-23T21:11:29.970Z,7.44
2022-12-23T21:14:06.257Z,7.53
2022-12-23T21:16:36.615Z,7.52
2022-12-23T21:19:05.527Z,7.61
2022-12-23T21:21:32.735Z,7.73
2022-12-23T21:24:02.660Z,7.72
2022-12-23T21:26:31.704Z,7.85
2022-12-23T21:29:00.586Z,7.88
2022-12-23T21:31:30.535Z,7.90
2022-12-23T21:33:58.833Z,7.75
2022-12-23T21:36:32.386Z,7.62
2022-12-23T21:39:00.481Z,7.48
2022-12-23T21:41:30.227Z,7.57
2022-12-23T21:43:59.444Z,7.54
2022-12-23T21:46:28.445Z,7.62
2022-12-23T21:48:57.311Z,7.62
2022-12-23T21:51:40.331Z,7.66
2022-12-23T21:54:09.773Z,7.71
2022-12-23T21:56:37.500Z,7.63
2022-12-23T21:59:08.733Z,7.82
2022-12-23T22:01:35.884Z,7.81
2022-12-23T22:04:03.883Z,7.85
2022-12-23T22:06:36.296Z,7.84
2022-12-23T22:09:04.844Z,7.67
2022-12-23T22:11:34.584Z,7.69
2022-12-23T22:14:04.412Z,8.08
2022-12-23T22:16:32.766Z,7.83
2022-12-23T22:19:01.652Z,7.70
2022-12-23T22:21:31.319Z,7.65
2022-12-23T22:23:59.826Z,7.17
2022-12-23T22:26:30.527Z,7.24
2022-12-23T22:29:00.292Z,7.15
2022-12-23T22:33:34.582Z,7.15
2022-12-23T22:36:01.676Z,7.20
2022-12-23T22:38:28.876Z,6.91
2022-12-23T22:40:56.408Z,6.87
2022-12-23T22:43:23.659Z,6.69
2022-12-23T22:45:58.788Z,6.72
2022-12-23T22:48:26.792Z,6.76
2022-12-23T22:51:03.738Z,6.76
2022-12-23T22:53:31.307Z,6.73
2022-12-23T22:56:02.833Z,6.78
2022-12-23T22:58:32.434Z,6.47
2022-12-23T23:01:01.156Z,6.36
2022-12-23T23:03:29.378Z,6.09
2022-12-23T23:06:01.366Z,6.01
2022-12-23T23:08:29.810Z,5.96
2022-12-23T23:11:02.586Z,5.86
2022-12-23T23:13:32.551Z,5.72
2022-12-23T23:16:00.631Z,5.68
2022-12-23T23:18:29.016Z,5.80
2022-12-23T23:20:56.373Z,5.85
2022-12-23T23:23:23.929Z,5.91
2022-12-23T23:25:51.139Z,5.80
2022-12-23T23:28:19.889Z,5.79
2022-12-23T23:30:47.062Z,5.73
2022-12-23T23:33:14.239Z,5.91
2022-12-23T23:35:42.118Z,5.93
2022-12-23T23:38:09.826Z,6.00
2022-12-23T23:40:37.084Z,5.94
2022-12-23T23:43:04.646Z,5.95
2022-12-23T23:45:31.877Z,5.87
2022-12-23T23:47:59.590Z,5.77
2022-12-23T23:50:26.782Z,5.69
2022-12-23T23:52:53.966Z,5.90
2022-12-23T23:55:21.569Z,5.92
2022-12-23T23:57:48.790Z,5.95
